createdAt,value
2018-03-14T00:00:05.745Z,55.89
2018-03-14T00:02:32.529Z,55.91
2018-03-14T00:04:59.306Z,55.90
2018-03-14T00:07:26.079Z,55.94
2018-03-14T00:09:52.844Z,55.93
2018-03-14T00:12:19.612Z,55.86
2018-03-14T00:14:46.389Z,55.87
2018-03-14T00:17:13.174Z,55.86
2018-03-14T00:19:39.960Z,55.77
2018-03-14T00:22:06.768Z,55.70
2018-03-14T00:24:33.545Z,55.72
2018-03-14T00:27:00.320Z,55.70
2018-03-14T00:29:27.123Z,55.69
2018-03-14T00:31:53.894Z,55.68
2018-03-14T00:34:20.676Z,55.66
2018-03-14T00:36:47.459Z,55.62
2018-03-14T00:39:14.249Z,55.63
2018-03-14T00:41:41.029Z,55.60
2018-03-14T00:44:07.803Z,55.60
2018-03-14T00:46:34.560Z,55.59
2018-03-14T00:49:01.336Z,55.54
2018-03-14T00:51:28.087Z,55.53
2018-03-14T00:53:54.872Z,55.51
2018-03-14T00:56:21.661Z,55.48
2018-03-14T00:58:48.457Z,55.44
2018-03-14T01:01:15.226Z,55.45
2018-03-14T01:03:42.000Z,55.41
2018-03-14T01:06:08.811Z,55.42
2018-03-14T01:08:35.581Z,55.41
2018-03-14T01:11:02.368Z,55.31
2018-03-14T01:13:29.150Z,55.24
2018-03-14T01:15:55.929Z,55.23
2018-03-14T01:18:22.711Z,55.23
2018-03-14T01:20:49.493Z,55.15
2018-03-14T01:23:16.283Z,55.17
2018-03-14T01:25:43.069Z,55.15
2018-03-14T01:28:09.878Z,55.18
2018-03-14T01:30:36.654Z,55.14
2018-03-14T01:33:03.431Z,55.04
2018-03-14T01:35:30.235Z,55.05
2018-03-14T01:37:58.110Z,55.05
2018-03-14T01:40:24.886Z,54.99
2018-03-14T01:42:51.678Z,55.00
2018-03-14T01:45:18.443Z,55.01
2018-03-14T01:47:45.209Z,55.02
2018-03-14T01:50:12.002Z,54.97
2018-03-14T01:52:38.754Z,54.97
2018-03-14T01:55:05.519Z,54.92
2018-03-14T01:57:32.273Z,54.85
2018-03-14T01:59:59.032Z,54.84
2018-03-14T02:02:25.788Z,54.86
2018-03-14T02:04:52.568Z,54.73
2018-03-14T02:07:19.363Z,54.75
2018-03-14T02:09:46.140Z,54.61
2018-03-14T02:12:12.927Z,54.44
2018-03-14T02:14:39.710Z,54.29
2018-03-14T02:17:06.526Z,54.44
2018-03-14T02:19:33.300Z,54.33
2018-03-14T02:22:00.086Z,54.44
2018-03-14T02:24:26.884Z,54.54
2018-03-14T02:26:53.626Z,54.49
2018-03-14T02:29:20.482Z,54.52
2018-03-14T02:31:47.174Z,54.54
2018-03-14T02:34:13.935Z,54.52
2018-03-14T02:36:40.705Z,54.56
2018-03-14T02:39:07.466Z,54.51
2018-03-14T02:41:34.244Z,54.51
2018-03-14T02:44:01.011Z,54.53
2018-03-14T02:46:27.772Z,54.48
2018-03-14T02:48:54.551Z,54.45
2018-03-14T02:51:21.424Z,54.47
2018-03-14T02:53:48.187Z,54.46
2018-03-14T02:56:14.935Z,54.41
2018-03-14T02:58:41.700Z,54.43
2018-03-14T03:01:08.460Z,54.39
2018-03-14T03:03:35.218Z,54.39
2018-03-14T03:06:02.000Z,54.35
2018-03-14T03:08:28.760Z,54.32
2018-03-14T03:10:55.559Z,54.33
2018-03-14T03:13:22.347Z,54.34
2018-03-14T03:15:49.121Z,54.21
2018-03-14T03:18:15.900Z,54.18
2018-03-14T03:20:42.682Z,54.18
2018-03-14T03:23:09.464Z,54.20
2018-03-14T03:25:36.217Z,54.19
2018-03-14T03:28:03.033Z,54.21
2018-03-14T03:30:29.790Z,54.17
2018-03-14T03:32:56.542Z,54.15
2018-03-14T03:35:23.314Z,54.16
2018-03-14T03:37:50.071Z,54.12
2018-03-14T03:40:16.823Z,54.16
2018-03-14T03:42:43.629Z,54.10
2018-03-14T03:45:10.402Z,54.02
2018-03-14T03:47:37.153Z,54.00
2018-03-14T03:50:03.938Z,54.02
2018-03-14T03:52:30.727Z,54.03
2018-03-14T03:54:57.496Z,54.02
2018-03-14T03:57:24.284Z,53.98
2018-03-14T03:59:51.072Z,53.89
2018-03-14T04:02:17.837Z,53.92
2018-03-14T04:04:44.616Z,53.90
2018-03-14T04:07:12.253Z,53.91
2018-03-14T04:09:41.474Z,53.90
2018-03-14T04:12:08.261Z,53.90
2018-03-14T04:14:35.038Z,53.87
2018-03-14T04:17:01.807Z,53.87
2018-03-14T04:19:28.584Z,53.88
2018-03-14T04:21:55.362Z,53.84
2018-03-14T04:24:22.166Z,53.84
2018-03-14T04:26:48.932Z,53.82
2018-03-14T04:29:15.731Z,53.86
2018-03-14T04:31:42.515Z,53.92
2018-03-14T04:34:09.302Z,53.94
2018-03-14T04:36:36.077Z,53.81
2018-03-14T04:39:02.852Z,53.83
2018-03-14T04:41:29.642Z,53.92
2018-03-14T04:43:56.505Z,53.92
2018-03-14T04:46:23.257Z,53.86
2018-03-14T04:48:50.025Z,53.83
2018-03-14T04:51:16.782Z,53.84
2018-03-14T04:53:43.622Z,53.82
2018-03-14T04:56:10.321Z,53.85
2018-03-14T04:58:37.096Z,53.92
2018-03-14T05:01:03.867Z,53.97
2018-03-14T05:03:30.637Z,54.09
2018-03-14T05:05:57.443Z,54.22
2018-03-14T05:08:24.206Z,54.33
2018-03-14T05:10:50.960Z,54.38
2018-03-14T05:13:17.724Z,54.41
2018-03-14T05:15:44.480Z,54.28
2018-03-14T05:18:11.251Z,54.38
2018-03-14T05:20:38.010Z,54.38
2018-03-14T05:23:04.782Z,54.27
2018-03-14T05:25:31.549Z,54.30
2018-03-14T05:27:58.306Z,54.28
2018-03-14T05:30:25.132Z,54.20
2018-03-14T05:32:51.826Z,54.25
2018-03-14T05:35:19.049Z,54.35
2018-03-14T05:37:45.715Z,54.28
2018-03-14T05:40:12.483Z,54.19
2018-03-14T05:42:39.249Z,53.95
2018-03-14T05:45:06.026Z,53.68
2018-03-14T05:47:32.795Z,53.48
2018-03-14T05:49:59.567Z,53.60
2018-03-14T05:52:26.685Z,53.58
2018-03-14T05:54:53.463Z,53.56
2018-03-14T05:57:20.234Z,53.68
2018-03-14T05:59:47.011Z,53.65
2018-03-14T06:02:13.784Z,53.81
2018-03-14T06:04:40.556Z,53.76
2018-03-14T06:07:07.343Z,54.22
2018-03-14T06:09:34.097Z,53.96
2018-03-14T06:12:00.849Z,53.93
2018-03-14T06:14:27.627Z,53.98
2018-03-14T06:16:54.391Z,54.01
2018-03-14T06:19:21.168Z,54.15
2018-03-14T06:21:47.927Z,54.30
2018-03-14T06:24:14.676Z,54.39
2018-03-14T06:26:41.444Z,54.65
2018-03-14T06:29:08.204Z,54.60
2018-03-14T06:31:34.983Z,54.68
2018-03-14T06:34:01.750Z,54.74
2018-03-14T06:36:28.516Z,54.64
2018-03-14T06:38:55.278Z,54.49
2018-03-14T06:41:22.029Z,54.32
2018-03-14T06:43:48.883Z,54.26
2018-03-14T06:46:15.642Z,54.22
2018-03-14T06:48:42.444Z,54.19
2018-03-14T06:51:09.201Z,54.10
2018-03-14T06:53:35.960Z,54.09
2018-03-14T06:56:02.732Z,54.10
2018-03-14T06:58:29.484Z,54.10
2018-03-14T07:00:56.274Z,54.20
2018-03-14T07:03:23.035Z,54.02
2018-03-14T07:05:49.817Z,53.96
2018-03-14T07:08:16.576Z,53.90
2018-03-14T07:10:43.338Z,54.04
2018-03-14T07:13:10.107Z,54.06
2018-03-14T07:15:36.863Z,54.07
2018-03-14T07:18:03.628Z,54.07
2018-03-14T07:20:30.380Z,54.05
2018-03-14T07:22:57.164Z,54.15
2018-03-14T07:25:23.918Z,54.35
2018-03-14T07:27:50.674Z,54.33
2018-03-14T07:30:17.461Z,54.26
2018-03-14T07:32:44.222Z,54.25
2018-03-14T07:35:10.977Z,54.22
2018-03-14T07:37:37.735Z,54.24
2018-03-14T07:40:04.559Z,54.20
2018-03-14T07:42:31.255Z,54.39
2018-03-14T07:44:58.018Z,54.27
2018-03-14T07:47:24.812Z,54.18
2018-03-14T07:49:51.583Z,53.99
2018-03-14T07:52:18.335Z,53.89
2018-03-14T07:54:45.098Z,53.78
2018-03-14T07:57:12.090Z,53.74
2018-03-14T07:59:41.376Z,53.73
2018-03-14T08:02:08.132Z,53.66
2018-03-14T08:04:34.900Z,53.62
2018-03-14T08:07:01.669Z,53.58
2018-03-14T08:09:28.430Z,53.53
2018-03-14T08:11:55.279Z,53.47
2018-03-14T08:14:21.960Z,53.42
2018-03-14T08:16:49.101Z,53.32
2018-03-14T08:19:15.926Z,53.25
2018-03-14T08:21:42.689Z,53.17
2018-03-14T08:24:09.450Z,53.12
2018-03-14T08:26:36.250Z,53.08
2018-03-14T08:29:03.032Z,53.07
2018-03-14T08:31:29.830Z,53.06
2018-03-14T08:33:56.917Z,53.11
2018-03-14T08:36:23.683Z,53.13
2018-03-14T08:38:50.433Z,53.09
2018-03-14T08:41:17.216Z,53.10
2018-03-14T08:43:43.969Z,53.18
2018-03-14T08:46:10.726Z,53.21
2018-03-14T08:48:37.499Z,53.16
2018-03-14T08:51:04.275Z,53.16
2018-03-14T08:53:31.041Z,53.14
2018-03-14T08:55:57.841Z,53.01
2018-03-14T08:58:24.633Z,52.94
2018-03-14T09:00:51.392Z,53.00
2018-03-14T09:03:18.150Z,53.00
2018-03-14T09:05:44.931Z,52.98
2018-03-14T09:08:11.751Z,52.91
2018-03-14T09:10:38.593Z,52.78
2018-03-14T09:13:05.331Z,52.71
2018-03-14T09:15:32.095Z,52.72
2018-03-14T09:17:58.851Z,52.69
2018-03-14T09:20:25.624Z,52.68
2018-03-14T09:22:52.380Z,52.61
2018-03-14T09:25:19.157Z,52.54
2018-03-14T09:27:45.914Z,52.43
2018-03-14T09:30:12.733Z,52.41
2018-03-14T09:32:39.492Z,52.49
2018-03-14T09:35:06.243Z,52.48
2018-03-14T09:37:33.004Z,52.46
2018-03-14T09:39:59.872Z,52.47
2018-03-14T09:42:26.576Z,52.54
2018-03-14T09:44:53.337Z,52.49
2018-03-14T09:47:20.132Z,52.46
2018-03-14T09:49:46.891Z,52.43
2018-03-14T09:52:13.653Z,52.46
2018-03-14T09:54:40.417Z,52.40
2018-03-14T09:57:07.209Z,52.42
2018-03-14T09:59:34.010Z,52.42
2018-03-14T10:02:00.768Z,52.45
2018-03-14T10:04:27.509Z,52.47
2018-03-14T10:06:54.269Z,52.43
2018-03-14T10:09:21.017Z,52.42
2018-03-14T10:11:47.771Z,52.42
2018-03-14T10:14:14.547Z,52.44
2018-03-14T10:16:41.296Z,52.42
2018-03-14T10:19:08.156Z,52.41
2018-03-14T10:21:34.862Z,52.43
2018-03-14T10:24:01.637Z,52.43
2018-03-14T10:26:28.415Z,52.37
2018-03-14T10:28:55.202Z,52.35
2018-03-14T10:31:22.009Z,52.34
2018-03-14T10:33:48.784Z,52.30
2018-03-14T10:36:15.577Z,52.27
2018-03-14T10:38:42.349Z,52.24
2018-03-14T10:41:09.109Z,52.23
2018-03-14T10:43:35.890Z,52.26
2018-03-14T10:46:02.667Z,52.36
2018-03-14T10:48:29.448Z,52.44
2018-03-14T10:50:56.230Z,52.44
2018-03-14T10:53:23.032Z,52.33
2018-03-14T10:55:49.804Z,52.29
2018-03-14T10:58:16.592Z,52.29
2018-03-14T11:01:01.725Z,52.29
2018-03-14T11:03:46.611Z,52.30
2018-03-14T11:06:13.384Z,52.23
2018-03-14T11:08:40.156Z,52.21
2018-03-14T11:11:06.973Z,52.16
2018-03-14T11:13:33.746Z,52.23
2018-03-14T11:16:00.499Z,52.26
2018-03-14T11:18:27.280Z,52.28
2018-03-14T11:20:54.039Z,52.25
2018-03-14T11:23:20.843Z,52.24
2018-03-14T11:25:47.631Z,52.20
2018-03-14T11:28:14.410Z,52.27
2018-03-14T11:30:41.267Z,52.18
2018-03-14T11:33:07.982Z,52.11
2018-03-14T11:35:34.780Z,52.08
2018-03-14T11:38:01.549Z,52.08
2018-03-14T11:40:28.339Z,52.08
2018-03-14T11:42:55.116Z,52.00
2018-03-14T11:45:21.890Z,51.96
2018-03-14T11:47:48.676Z,51.97
2018-03-14T11:50:15.465Z,51.99
2018-03-14T11:52:42.261Z,51.96
2018-03-14T11:55:09.048Z,51.93
2018-03-14T11:57:35.810Z,51.93
2018-03-14T12:00:04.505Z,51.91
2018-03-14T12:02:31.272Z,51.81
2018-03-14T12:04:58.054Z,51.82
2018-03-14T12:07:24.872Z,51.77
2018-03-14T12:09:51.614Z,51.76
2018-03-14T12:12:18.423Z,51.74
2018-03-14T12:14:45.182Z,51.75
2018-03-14T12:17:12.050Z,51.66
2018-03-14T12:19:38.739Z,51.62
2018-03-14T12:22:05.492Z,51.57
2018-03-14T12:24:32.254Z,51.51
2018-03-14T12:26:59.020Z,51.50
2018-03-14T12:29:25.775Z,51.47
2018-03-14T12:31:52.695Z,51.41
2018-03-14T12:34:19.477Z,51.41
2018-03-14T12:36:46.259Z,51.37
2018-03-14T12:39:13.036Z,51.32
2018-03-14T12:41:39.814Z,51.33
2018-03-14T12:44:06.606Z,51.36
2018-03-14T12:46:33.389Z,51.31
2018-03-14T12:49:00.211Z,51.30
2018-03-14T12:51:26.969Z,51.20
2018-03-14T12:53:53.794Z,51.10
2018-03-14T12:56:20.564Z,51.12
2018-03-14T12:58:47.334Z,51.14
2018-03-14T13:01:14.116Z,51.20
2018-03-14T13:03:40.870Z,51.22
2018-03-14T13:06:07.624Z,51.19
2018-03-14T13:08:34.381Z,51.20
2018-03-14T13:11:01.131Z,51.18
2018-03-14T13:13:27.931Z,51.15
2018-03-14T13:15:54.707Z,51.16
2018-03-14T13:18:21.488Z,51.15
2018-03-14T13:20:48.268Z,51.16
2018-03-14T13:23:15.021Z,51.05
2018-03-14T13:25:41.800Z,51.07
2018-03-14T13:28:08.552Z,51.19
2018-03-14T13:30:35.356Z,51.32
2018-03-14T13:33:02.102Z,51.38
2018-03-14T13:35:28.897Z,51.45
2018-03-14T13:37:55.660Z,51.47
2018-03-14T13:40:22.433Z,51.49
2018-03-14T13:42:49.224Z,51.51
2018-03-14T13:45:16.001Z,51.54
2018-03-14T13:47:42.802Z,51.53
2018-03-14T13:50:09.557Z,51.56
2018-03-14T13:52:36.329Z,51.54
2018-03-14T13:55:03.093Z,51.50
2018-03-14T13:57:29.907Z,51.25
2018-03-14T13:59:56.664Z,50.82
2018-03-14T14:02:23.418Z,50.23
2018-03-14T14:04:50.189Z,50.14
2018-03-14T14:07:16.939Z,50.24
2018-03-14T14:09:43.716Z,50.27
2018-03-14T14:12:10.520Z,50.43
2018-03-14T14:14:37.291Z,50.51
2018-03-14T14:17:04.044Z,50.53
2018-03-14T14:19:30.823Z,50.59
2018-03-14T14:21:57.591Z,50.59
2018-03-14T14:24:24.368Z,50.57
2018-03-14T14:26:51.212Z,50.58
2018-03-14T14:29:18.028Z,50.59
2018-03-14T14:31:44.782Z,50.56
2018-03-14T14:34:11.565Z,50.59
2018-03-14T14:36:38.342Z,50.59
2018-03-14T14:39:05.130Z,50.61
2018-03-14T14:41:31.999Z,50.63
2018-03-14T14:43:58.693Z,50.62
2018-03-14T14:46:25.462Z,50.66
2018-03-14T14:48:52.251Z,50.79
2018-03-14T14:51:19.031Z,50.67
2018-03-14T14:53:45.799Z,50.73
2018-03-14T14:56:12.588Z,50.83
2018-03-14T14:58:39.357Z,50.95
2018-03-14T15:01:06.156Z,50.99
2018-03-14T15:03:32.930Z,51.19
2018-03-14T15:05:59.709Z,51.44
2018-03-14T15:08:26.485Z,51.66
2018-03-14T15:10:53.251Z,51.83
2018-03-14T15:13:20.042Z,51.92
2018-03-14T15:15:46.897Z,51.95
2018-03-14T15:18:14.039Z,52.17
2018-03-14T15:20:40.715Z,51.90
2018-03-14T15:23:07.476Z,51.85
2018-03-14T15:25:34.268Z,51.84
2018-03-14T15:28:01.022Z,51.27
2018-03-14T15:30:27.788Z,51.59
2018-03-14T15:32:54.556Z,51.46
2018-03-14T15:35:21.381Z,51.29
2018-03-14T15:37:48.126Z,50.89
2018-03-14T15:40:14.900Z,50.34
2018-03-14T15:42:41.703Z,49.67
2018-03-14T15:45:08.461Z,49.63
2018-03-14T15:47:35.220Z,49.81
2018-03-14T15:50:02.000Z,49.92
2018-03-14T15:52:28.773Z,49.97
2018-03-14T15:54:55.569Z,50.29
2018-03-14T15:57:22.354Z,50.26
2018-03-14T15:59:49.150Z,50.14
2018-03-14T16:02:15.934Z,50.48
2018-03-14T16:04:42.703Z,50.66
2018-03-14T16:07:09.538Z,50.79
2018-03-14T16:09:36.252Z,50.54
2018-03-14T16:12:03.013Z,50.46
2018-03-14T16:14:29.779Z,50.56
2018-03-14T16:16:56.542Z,50.65
2018-03-14T16:19:23.314Z,50.72
2018-03-14T16:21:50.067Z,50.73
2018-03-14T16:24:16.854Z,50.79
2018-03-14T16:26:43.613Z,50.78
2018-03-14T16:29:10.395Z,50.83
2018-03-14T16:31:37.176Z,50.85
2018-03-14T16:34:03.953Z,50.83
2018-03-14T16:36:30.742Z,50.82
2018-03-14T16:38:57.504Z,50.85
2018-03-14T16:41:24.261Z,50.87
2018-03-14T16:43:51.057Z,50.90
2018-03-14T16:46:17.825Z,50.90
2018-03-14T16:48:44.599Z,50.92
2018-03-14T16:51:11.427Z,50.72
2018-03-14T16:53:38.229Z,51.00
2018-03-14T16:56:04.971Z,51.33
2018-03-14T16:58:31.728Z,51.07
2018-03-14T17:00:58.530Z,50.84
2018-03-14T17:03:25.335Z,50.92
2018-03-14T17:05:52.098Z,50.97
2018-03-14T17:08:18.856Z,51.48
2018-03-14T17:10:45.686Z,51.73
2018-03-14T17:13:12.431Z,51.73
2018-03-14T17:15:40.467Z,51.75
2018-03-14T17:18:07.160Z,51.87
2018-03-14T17:20:33.971Z,51.93
2018-03-14T17:23:00.704Z,52.01
2018-03-14T17:25:27.485Z,52.11
2018-03-14T17:27:54.255Z,52.31
2018-03-14T17:30:21.042Z,52.40
2018-03-14T17:32:47.814Z,52.55
2018-03-14T17:35:14.597Z,52.73
2018-03-14T17:37:41.393Z,52.89
2018-03-14T17:40:08.166Z,53.12
2018-03-14T17:42:34.965Z,53.34
2018-03-14T17:45:01.789Z,53.52
2018-03-14T17:47:28.561Z,53.82
2018-03-14T17:49:55.344Z,54.12
2018-03-14T17:52:22.115Z,54.15
2018-03-14T17:54:48.882Z,54.38
2018-03-14T17:57:15.646Z,54.24
2018-03-14T17:59:42.405Z,54.23
2018-03-14T18:02:09.197Z,54.17
2018-03-14T18:04:35.960Z,54.28
2018-03-14T18:07:02.761Z,54.15
2018-03-14T18:09:29.534Z,54.22
2018-03-14T18:11:56.300Z,54.56
2018-03-14T18:14:23.097Z,54.81
2018-03-14T18:16:49.869Z,54.85
2018-03-14T18:19:16.679Z,55.01
2018-03-14T18:21:43.446Z,55.29
2018-03-14T18:24:10.229Z,55.92
2018-03-14T18:26:37.101Z,56.14
2018-03-14T18:29:03.862Z,56.37
2018-03-14T18:31:30.631Z,56.63
2018-03-14T18:33:57.396Z,56.79
2018-03-14T18:36:24.180Z,57.14
2018-03-14T18:38:50.955Z,58.53
2018-03-14T18:41:17.724Z,57.63
2018-03-14T18:43:44.510Z,57.30
2018-03-14T18:46:11.296Z,57.19
2018-03-14T18:48:38.090Z,57.24
2018-03-14T18:51:04.857Z,57.19
2018-03-14T18:53:31.691Z,57.21
2018-03-14T18:55:58.394Z,57.29
2018-03-14T18:58:25.202Z,57.33
2018-03-14T19:00:51.971Z,57.33
2018-03-14T19:03:18.729Z,57.43
2018-03-14T19:05:45.524Z,57.33
2018-03-14T19:08:12.288Z,57.32
2018-03-14T19:10:39.037Z,57.28
2018-03-14T19:13:05.820Z,57.30
2018-03-14T19:15:32.605Z,57.23
2018-03-14T19:17:59.410Z,57.20
2018-03-14T19:20:26.186Z,57.16
2018-03-14T19:22:52.955Z,57.08
2018-03-14T19:25:19.725Z,57.10
2018-03-14T19:27:46.517Z,57.10
2018-03-14T19:30:13.318Z,57.00
2018-03-14T19:32:40.118Z,57.13
2018-03-14T19:35:06.868Z,56.95
2018-03-14T19:37:33.635Z,56.89
2018-03-14T19:40:00.416Z,56.91
2018-03-14T19:42:27.830Z,56.84
2018-03-14T19:44:54.623Z,56.77
2018-03-14T19:47:21.397Z,55.29
2018-03-14T19:49:48.157Z,57.01
2018-03-14T19:52:14.947Z,55.96
2018-03-14T19:54:41.709Z,55.68
2018-03-14T19:57:08.475Z,55.38
2018-03-14T19:59:35.248Z,55.27
2018-03-14T20:02:02.029Z,55.16
2018-03-14T20:04:28.798Z,55.46
2018-03-14T20:06:55.583Z,55.66
2018-03-14T20:09:22.346Z,55.71
2018-03-14T20:11:49.100Z,55.67
2018-03-14T20:14:15.866Z,55.58
2018-03-14T20:16:42.655Z,55.54
2018-03-14T20:19:09.477Z,55.44
2018-03-14T20:21:36.183Z,55.40
2018-03-14T20:24:02.957Z,55.49
2018-03-14T20:26:29.745Z,55.46
2018-03-14T20:28:56.502Z,55.51
2018-03-14T20:31:23.293Z,55.43
2018-03-14T20:33:50.065Z,55.40
2018-03-14T20:36:16.823Z,55.50
2018-03-14T20:38:43.601Z,55.67
2018-03-14T20:41:10.355Z,55.76
2018-03-14T20:43:37.167Z,55.76
2018-03-14T20:46:03.918Z,55.72
2018-03-14T20:48:30.705Z,55.58
2018-03-14T20:50:57.482Z,55.41
2018-03-14T20:53:24.254Z,55.03
2018-03-14T20:55:51.060Z,54.78
2018-03-14T20:58:17.834Z,54.52
2018-03-14T21:00:44.598Z,54.55
2018-03-14T21:03:11.366Z,54.48
2018-03-14T21:05:38.137Z,54.53
2018-03-14T21:08:04.951Z,54.56
2018-03-14T21:10:31.721Z,54.57
2018-03-14T21:12:58.495Z,54.59
2018-03-14T21:15:25.277Z,54.63
2018-03-14T21:17:52.045Z,54.61
2018-03-14T21:20:18.918Z,54.58
2018-03-14T21:22:45.621Z,54.59
2018-03-14T21:25:12.397Z,54.55
2018-03-14T21:27:39.177Z,54.57
2018-03-14T21:30:05.958Z,54.54
2018-03-14T21:32:32.737Z,54.66
2018-03-14T21:34:59.512Z,54.57
2018-03-14T21:37:26.326Z,54.56
2018-03-14T21:39:53.096Z,54.59
2018-03-14T21:42:19.889Z,54.63
2018-03-14T21:44:46.647Z,54.41
2018-03-14T21:47:13.420Z,54.48
2018-03-14T21:49:40.228Z,54.37
2018-03-14T21:52:07.004Z,54.43
2018-03-14T21:54:33.776Z,54.45
2018-03-14T21:57:00.545Z,54.47
2018-03-14T21:59:27.316Z,54.43
2018-03-14T22:01:54.095Z,54.42
2018-03-14T22:04:20.875Z,54.41
2018-03-14T22:06:47.672Z,54.51
2018-03-14T22:09:14.482Z,54.51
2018-03-14T22:11:41.247Z,54.48
2018-03-14T22:14:08.028Z,54.34
2018-03-14T22:16:34.779Z,54.32
2018-03-14T22:19:01.607Z,54.29
2018-03-14T22:21:28.357Z,54.33
2018-03-14T22:23:55.127Z,54.29
2018-03-14T22:26:21.941Z,54.27
2018-03-14T22:28:48.701Z,54.23
2018-03-14T22:31:15.529Z,54.20
2018-03-14T22:33:42.296Z,54.16
2018-03-14T22:36:09.057Z,54.13
2018-03-14T22:38:35.819Z,54.09
2018-03-14T22:41:02.574Z,54.06
2018-03-14T22:43:29.404Z,54.02
2018-03-14T22:45:56.156Z,54.03
2018-03-14T22:48:22.916Z,54.04
2018-03-14T22:50:49.679Z,53.99
2018-03-14T22:53:16.498Z,53.94
2018-03-14T22:55:43.274Z,53.95
2018-03-14T22:58:10.037Z,54.01
2018-03-14T23:00:36.792Z,53.89
2018-03-14T23:03:03.597Z,53.87
2018-03-14T23:05:30.352Z,53.81
2018-03-14T23:07:57.154Z,53.83
2018-03-14T23:10:23.919Z,53.75
2018-03-14T23:12:50.675Z,53.73
2018-03-14T23:15:17.478Z,53.63
2018-03-14T23:17:44.279Z,53.63
2018-03-14T23:20:10.980Z,53.66
2018-03-14T23:22:37.760Z,53.61
2018-03-14T23:25:04.520Z,53.61
2018-03-14T23:27:31.294Z,53.62
2018-03-14T23:29:58.098Z,53.57
2018-03-14T23:32:24.866Z,53.56
2018-03-14T23:34:51.659Z,53.57
2018-03-14T23:37:18.470Z,53.52
2018-03-14T23:39:45.201Z,53.48
2018-03-14T23:42:11.959Z,53.47
2018-03-14T23:44:38.754Z,53.47
2018-03-14T23:47:05.519Z,53.47
2018-03-14T23:49:32.288Z,53.56
2018-03-14T23:51:59.054Z,53.53
2018-03-14T23:54:25.824Z,53.58
2018-03-14T23:56:52.605Z,53.58
2018-03-14T23:59:19.356Z,53.61
